sensor_id;sensor_type;location;lat;lon;timestamp;temperature;humidity
8838;DHT22;4455;50.880;4.698;2022-08-05T00:01:17;20.90;99.90
8838;DHT22;4455;50.880;4.698;2022-08-05T00:03:45;20.90;99.90
8838;DHT22;4455;50.880;4.698;2022-08-05T00:06:11;20.80;99.90
8838;DHT22;4455;50.880;4.698;2022-08-05T00:08:37;20.70;99.90
8838;DHT22;4455;50.880;4.698;2022-08-05T00:11:06;20.70;99.90
8838;DHT22;4455;50.880;4.698;2022-08-05T00:13:35;20.70;99.90
8838;DHT22;4455;50.880;4.698;2022-08-05T00:16:01;20.70;99.90
8838;DHT22;4455;50.880;4.698;2022-08-05T00:18:29;20.60;99.90
8838;DHT22;4455;50.880;4.698;2022-08-05T00:20:56;20.60;99.90
8838;DHT22;4455;50.880;4.698;2022-08-05T00:23:23;20.50;99.90
8838;DHT22;4455;50.880;4.698;2022-08-05T00:25:49;20.50;99.90
8838;DHT22;4455;50.880;4.698;2022-08-05T00:28:16;20.50;99.90
8838;DHT22;4455;50.880;4.698;2022-08-05T00:30:44;20.50;99.90
8838;DHT22;4455;50.880;4.698;2022-08-05T00:33:09;20.50;99.90
8838;DHT22;4455;50.880;4.698;2022-08-05T00:35:37;20.50;99.90
8838;DHT22;4455;50.880;4.698;2022-08-05T00:38:23;20.50;99.90
8838;DHT22;4455;50.880;4.698;2022-08-05T00:40:54;20.40;99.90
8838;DHT22;4455;50.880;4.698;2022-08-05T00:43:21;20.40;99.90
8838;DHT22;4455;50.880;4.698;2022-08-05T00:45:47;20.50;99.90
8838;DHT22;4455;50.880;4.698;2022-08-05T00:48:17;20.60;99.90
8838;DHT22;4455;50.880;4.698;2022-08-05T00:50:48;20.50;99.90
8838;DHT22;4455;50.880;4.698;2022-08-05T00:53:18;20.50;99.90
8838;DHT22;4455;50.880;4.698;2022-08-05T00:55:47;20.40;99.90
8838;DHT22;4455;50.880;4.698;2022-08-05T00:58:15;20.30;99.90
8838;DHT22;4455;50.880;4.698;2022-08-05T01:00:42;20.40;99.90
8838;DHT22;4455;50.880;4.698;2022-08-05T01:03:10;20.40;99.90
8838;DHT22;4455;50.880;4.698;2022-08-05T01:05:36;20.50;99.90
8838;DHT22;4455;50.880;4.698;2022-08-05T01:08:03;20.60;99.90
8838;DHT22;4455;50.880;4.698;2022-08-05T01:10:40;20.50;99.90
8838;DHT22;4455;50.880;4.698;2022-08-05T01:13:15;20.50;99.90
8838;DHT22;4455;50.880;4.698;2022-08-05T01:15:52;20.30;99.90
8838;DHT22;4455;50.880;4.698;2022-08-05T01:18:24;20.30;99.90
8838;DHT22;4455;50.880;4.698;2022-08-05T01:21:11;20.50;99.90
8838;DHT22;4455;50.880;4.698;2022-08-05T01:24:25;20.60;99.90
8838;DHT22;4455;50.880;4.698;2022-08-05T01:27:06;20.60;99.90
8838;DHT22;4455;50.880;4.698;2022-08-05T01:29:37;20.50;99.90
8838;DHT22;4455;50.880;4.698;2022-08-05T01:32:09;20.40;99.90
8838;DHT22;4455;50.880;4.698;2022-08-05T01:34:44;20.30;99.90
8838;DHT22;4455;50.880;4.698;2022-08-05T01:37:18;20.10;99.90
8838;DHT22;4455;50.880;4.698;2022-08-05T01:39:46;20.00;99.90
8838;DHT22;4455;50.880;4.698;2022-08-05T01:42:18;19.90;99.90
8838;DHT22;4455;50.880;4.698;2022-08-05T01:44:45;19.80;99.90
8838;DHT22;4455;50.880;4.698;2022-08-05T01:47:14;19.80;99.90
8838;DHT22;4455;50.880;4.698;2022-08-05T01:49:42;19.80;99.90
8838;DHT22;4455;50.880;4.698;2022-08-05T01:52:09;19.80;99.90
8838;DHT22;4455;50.880;4.698;2022-08-05T01:54:44;19.90;99.90
8838;DHT22;4455;50.880;4.698;2022-08-05T01:57:12;19.80;99.90
8838;DHT22;4455;50.880;4.698;2022-08-05T01:59:39;20.00;99.90
8838;DHT22;4455;50.880;4.698;2022-08-05T02:02:08;20.10;99.90
8838;DHT22;4455;50.880;4.698;2022-08-05T02:04:37;20.10;99.90
8838;DHT22;4455;50.880;4.698;2022-08-05T02:07:05;20.00;99.90
8838;DHT22;4455;50.880;4.698;2022-08-05T02:09:31;20.00;99.90
8838;DHT22;4455;50.880;4.698;2022-08-05T02:12:18;20.20;99.90
8838;DHT22;4455;50.880;4.698;2022-08-05T02:15:15;20.30;99.90
8838;DHT22;4455;50.880;4.698;2022-08-05T02:17:52;20.20;99.90
8838;DHT22;4455;50.880;4.698;2022-08-05T02:20:26;20.10;99.90
8838;DHT22;4455;50.880;4.698;2022-08-05T02:23:02;20.10;99.90
8838;DHT22;4455;50.880;4.698;2022-08-05T02:25:38;20.00;99.90
8838;DHT22;4455;50.880;4.698;2022-08-05T02:28:27;20.00;99.90
8838;DHT22;4455;50.880;4.698;2022-08-05T02:31:00;19.80;99.90
8838;DHT22;4455;50.880;4.698;2022-08-05T02:33:28;19.80;99.90
8838;DHT22;4455;50.880;4.698;2022-08-05T02:35:57;19.70;99.90
8838;DHT22;4455;50.880;4.698;2022-08-05T02:38:27;19.70;99.90
8838;DHT22;4455;50.880;4.698;2022-08-05T02:40:54;19.70;99.90
8838;DHT22;4455;50.880;4.698;2022-08-05T02:43:23;19.70;99.90
8838;DHT22;4455;50.880;4.698;2022-08-05T02:45:50;19.70;99.90
8838;DHT22;4455;50.880;4.698;2022-08-05T02:48:17;19.70;99.90
8838;DHT22;4455;50.880;4.698;2022-08-05T02:50:45;19.70;99.90
8838;DHT22;4455;50.880;4.698;2022-08-05T02:53:15;19.70;99.90
8838;DHT22;4455;50.880;4.698;2022-08-05T02:55:44;19.70;99.90
8838;DHT22;4455;50.880;4.698;2022-08-05T02:58:13;19.60;99.90
8838;DHT22;4455;50.880;4.698;2022-08-05T03:00:40;19.70;99.90
8838;DHT22;4455;50.880;4.698;2022-08-05T03:03:08;19.70;99.90
8838;DHT22;4455;50.880;4.698;2022-08-05T03:05:34;19.70;99.90
8838;DHT22;4455;50.880;4.698;2022-08-05T03:08:01;19.70;99.90
8838;DHT22;4455;50.880;4.698;2022-08-05T03:10:27;19.70;99.90
8838;DHT22;4455;50.880;4.698;2022-08-05T03:12:53;19.70;99.90
8838;DHT22;4455;50.880;4.698;2022-08-05T03:15:19;19.70;99.90
8838;DHT22;4455;50.880;4.698;2022-08-05T03:17:48;19.80;99.90
8838;DHT22;4455;50.880;4.698;2022-08-05T03:20:13;19.90;99.90
8838;DHT22;4455;50.880;4.698;2022-08-05T03:22:39;19.90;99.90
8838;DHT22;4455;50.880;4.698;2022-08-05T03:25:05;19.90;99.90
8838;DHT22;4455;50.880;4.698;2022-08-05T03:27:33;19.80;99.90
8838;DHT22;4455;50.880;4.698;2022-08-05T03:29:59;19.80;99.90
8838;DHT22;4455;50.880;4.698;2022-08-05T03:32:25;19.80;99.90
8838;DHT22;4455;50.880;4.698;2022-08-05T03:34:51;19.80;99.90
8838;DHT22;4455;50.880;4.698;2022-08-05T03:37:18;19.80;99.90
8838;DHT22;4455;50.880;4.698;2022-08-05T03:39:55;19.70;99.90
8838;DHT22;4455;50.880;4.698;2022-08-05T03:42:21;19.60;99.90
8838;DHT22;4455;50.880;4.698;2022-08-05T03:44:48;19.60;99.90
8838;DHT22;4455;50.880;4.698;2022-08-05T03:47:13;19.60;99.90
8838;DHT22;4455;50.880;4.698;2022-08-05T03:49:39;19.50;99.90
8838;DHT22;4455;50.880;4.698;2022-08-05T03:52:09;19.60;99.90
8838;DHT22;4455;50.880;4.698;2022-08-05T03:57:07;19.40;99.90
8838;DHT22;4455;50.880;4.698;2022-08-05T03:59:41;19.40;99.90
8838;DHT22;4455;50.880;4.698;2022-08-05T04:02:09;19.40;99.90
8838;DHT22;4455;50.880;4.698;2022-08-05T04:04:35;19.40;99.90
8838;DHT22;4455;50.880;4.698;2022-08-05T04:07:02;19.40;99.90
8838;DHT22;4455;50.880;4.698;2022-08-05T04:09:30;19.30;99.90
8838;DHT22;4455;50.880;4.698;2022-08-05T04:11:57;19.40;99.90
8838;DHT22;4455;50.880;4.698;2022-08-05T04:14:26;19.30;99.90
8838;DHT22;4455;50.880;4.698;2022-08-05T04:16:52;19.30;99.90
8838;DHT22;4455;50.880;4.698;2022-08-05T04:19:19;19.30;99.90
8838;DHT22;4455;50.880;4.698;2022-08-05T04:21:45;19.30;99.90
8838;DHT22;4455;50.880;4.698;2022-08-05T04:24:11;19.40;99.90
8838;DHT22;4455;50.880;4.698;2022-08-05T04:26:37;19.40;99.90
8838;DHT22;4455;50.880;4.698;2022-08-05T04:29:03;19.40;99.90
8838;DHT22;4455;50.880;4.698;2022-08-05T04:31:29;19.40;99.90
8838;DHT22;4455;50.880;4.698;2022-08-05T04:33:56;19.40;99.90
8838;DHT22;4455;50.880;4.698;2022-08-05T04:36:21;19.40;99.90
8838;DHT22;4455;50.880;4.698;2022-08-05T04:38:48;19.30;99.90
8838;DHT22;4455;50.880;4.698;2022-08-05T04:41:16;19.30;99.90
8838;DHT22;4455;50.880;4.698;2022-08-05T04:43:42;19.30;99.90
8838;DHT22;4455;50.880;4.698;2022-08-05T04:46:08;19.20;99.90
8838;DHT22;4455;50.880;4.698;2022-08-05T04:48:34;19.20;99.90
8838;DHT22;4455;50.880;4.698;2022-08-05T04:51:00;19.10;99.90
8838;DHT22;4455;50.880;4.698;2022-08-05T04:53:26;19.10;99.90
8838;DHT22;4455;50.880;4.698;2022-08-05T04:55:53;19.20;99.90
8838;DHT22;4455;50.880;4.698;2022-08-05T04:58:19;19.10;99.90
8838;DHT22;4455;50.880;4.698;2022-08-05T05:00:48;19.20;99.90
8838;DHT22;4455;50.880;4.698;2022-08-05T05:03:14;19.20;99.90
8838;DHT22;4455;50.880;4.698;2022-08-05T05:05:40;19.10;99.90
8838;DHT22;4455;50.880;4.698;2022-08-05T05:08:08;19.20;99.90
8838;DHT22;4455;50.880;4.698;2022-08-05T05:10:42;19.20;99.90
8838;DHT22;4455;50.880;4.698;2022-08-05T05:13:10;19.20;99.90
8838;DHT22;4455;50.880;4.698;2022-08-05T05:15:37;19.20;99.90
8838;DHT22;4455;50.880;4.698;2022-08-05T05:18:05;19.20;99.90
8838;DHT22;4455;50.880;4.698;2022-08-05T05:20:31;19.20;99.90
8838;DHT22;4455;50.880;4.698;2022-08-05T05:22:58;19.20;99.90
8838;DHT22;4455;50.880;4.698;2022-08-05T05:25:26;19.10;99.90
8838;DHT22;4455;50.880;4.698;2022-08-05T05:27:52;19.00;99.90
8838;DHT22;4455;50.880;4.698;2022-08-05T05:30:19;19.00;99.90
8838;DHT22;4455;50.880;4.698;2022-08-05T05:32:45;19.00;99.90
8838;DHT22;4455;50.880;4.698;2022-08-05T05:35:11;19.10;99.90
8838;DHT22;4455;50.880;4.698;2022-08-05T05:38:06;19.10;99.90
8838;DHT22;4455;50.880;4.698;2022-08-05T05:40:33;19.00;99.90
8838;DHT22;4455;50.880;4.698;2022-08-05T05:42:59;19.00;99.90
8838;DHT22;4455;50.880;4.698;2022-08-05T05:45:25;19.10;99.90
8838;DHT22;4455;50.880;4.698;2022-08-05T05:47:51;19.10;99.90
8838;DHT22;4455;50.880;4.698;2022-08-05T05:50:18;19.10;99.90
8838;DHT22;4455;50.880;4.698;2022-08-05T05:52:46;19.20;99.90
8838;DHT22;4455;50.880;4.698;2022-08-05T05:55:13;19.30;99.90
8838;DHT22;4455;50.880;4.698;2022-08-05T05:57:41;19.30;99.90
8838;DHT22;4455;50.880;4.698;2022-08-05T06:00:11;19.50;99.90
8838;DHT22;4455;50.880;4.698;2022-08-05T06:02:37;19.60;99.90
8838;DHT22;4455;50.880;4.698;2022-08-05T06:05:06;19.70;99.90
8838;DHT22;4455;50.880;4.698;2022-08-05T06:07:35;19.50;99.90
8838;DHT22;4455;50.880;4.698;2022-08-05T06:10:01;19.40;99.90
8838;DHT22;4455;50.880;4.698;2022-08-05T06:12:27;19.40;99.90
8838;DHT22;4455;50.880;4.698;2022-08-05T06:14:53;19.30;99.90
8838;DHT22;4455;50.880;4.698;2022-08-05T06:17:19;19.50;99.90
8838;DHT22;4455;50.880;4.698;2022-08-05T06:19:45;19.60;99.90
8838;DHT22;4455;50.880;4.698;2022-08-05T06:22:11;19.70;99.90
8838;DHT22;4455;50.880;4.698;2022-08-05T06:24:41;19.80;99.90
8838;DHT22;4455;50.880;4.698;2022-08-05T06:27:07;20.10;99.90
8838;DHT22;4455;50.880;4.698;2022-08-05T06:29:33;20.70;99.90
8838;DHT22;4455;50.880;4.698;2022-08-05T06:32:00;21.20;99.90
8838;DHT22;4455;50.880;4.698;2022-08-05T06:34:26;21.20;99.90
8838;DHT22;4455;50.880;4.698;2022-08-05T06:36:52;21.10;99.90
8838;DHT22;4455;50.880;4.698;2022-08-05T06:39:19;20.90;99.90
8838;DHT22;4455;50.880;4.698;2022-08-05T06:41:45;20.80;99.90
8838;DHT22;4455;50.880;4.698;2022-08-05T06:44:11;20.60;99.90
8838;DHT22;4455;50.880;4.698;2022-08-05T06:46:37;20.50;99.90
8838;DHT22;4455;50.880;4.698;2022-08-05T06:49:03;20.40;99.90
8838;DHT22;4455;50.880;4.698;2022-08-05T06:51:29;20.30;99.90
8838;DHT22;4455;50.880;4.698;2022-08-05T06:53:56;20.20;99.90
8838;DHT22;4455;50.880;4.698;2022-08-05T06:56:22;20.20;99.90
8838;DHT22;4455;50.880;4.698;2022-08-05T06:58:48;20.10;99.90
8838;DHT22;4455;50.880;4.698;2022-08-05T07:01:14;20.10;99.90
8838;DHT22;4455;50.880;4.698;2022-08-05T07:03:40;20.20;99.90
8838;DHT22;4455;50.880;4.698;2022-08-05T07:06:06;20.10;99.90
8838;DHT22;4455;50.880;4.698;2022-08-05T07:08:32;20.10;99.90
8838;DHT22;4455;50.880;4.698;2022-08-05T07:10:58;20.00;99.90
8838;DHT22;4455;50.880;4.698;2022-08-05T07:13:24;20.10;99.90
8838;DHT22;4455;50.880;4.698;2022-08-05T07:16:09;20.10;99.90
8838;DHT22;4455;50.880;4.698;2022-08-05T07:18:53;20.10;99.90
8838;DHT22;4455;50.880;4.698;2022-08-05T07:21:19;20.10;99.90
8838;DHT22;4455;50.880;4.698;2022-08-05T07:23:45;20.20;99.90
8838;DHT22;4455;50.880;4.698;2022-08-05T07:26:11;20.20;99.90
8838;DHT22;4455;50.880;4.698;2022-08-05T07:28:38;20.30;99.90
8838;DHT22;4455;50.880;4.698;2022-08-05T07:31:06;20.30;99.90
8838;DHT22;4455;50.880;4.698;2022-08-05T07:33:32;20.40;99.90
8838;DHT22;4455;50.880;4.698;2022-08-05T07:35:58;20.50;99.90
8838;DHT22;4455;50.880;4.698;2022-08-05T07:38:24;20.60;99.90
8838;DHT22;4455;50.880;4.698;2022-08-05T07:40:51;20.70;99.90
8838;DHT22;4455;50.880;4.698;2022-08-05T07:43:17;20.80;99.90
8838;DHT22;4455;50.880;4.698;2022-08-05T07:45:43;21.00;99.90
8838;DHT22;4455;50.880;4.698;2022-08-05T07:48:10;21.20;99.90
8838;DHT22;4455;50.880;4.698;2022-08-05T07:50:36;21.50;99.90
8838;DHT22;4455;50.880;4.698;2022-08-05T07:53:04;21.60;99.90
8838;DHT22;4455;50.880;4.698;2022-08-05T07:55:32;21.60;99.90
8838;DHT22;4455;50.880;4.698;2022-08-05T07:57:58;21.60;99.90
8838;DHT22;4455;50.880;4.698;2022-08-05T08:00:23;21.50;99.90
8838;DHT22;4455;50.880;4.698;2022-08-05T08:02:50;21.60;99.90
8838;DHT22;4455;50.880;4.698;2022-08-05T08:05:16;21.60;99.90
8838;DHT22;4455;50.880;4.698;2022-08-05T08:07:42;21.40;99.90
8838;DHT22;4455;50.880;4.698;2022-08-05T08:10:08;21.40;99.90
8838;DHT22;4455;50.880;4.698;2022-08-05T08:12:34;21.30;99.90
8838;DHT22;4455;50.880;4.698;2022-08-05T08:15:00;21.20;99.90
8838;DHT22;4455;50.880;4.698;2022-08-05T08:17:27;21.10;99.90
8838;DHT22;4455;50.880;4.698;2022-08-05T08:19:53;21.20;99.90
8838;DHT22;4455;50.880;4.698;2022-08-05T08:22:24;21.40;99.90
8838;DHT22;4455;50.880;4.698;2022-08-05T08:24:51;21.30;99.90
8838;DHT22;4455;50.880;4.698;2022-08-05T08:27:16;21.20;99.90
8838;DHT22;4455;50.880;4.698;2022-08-05T08:29:42;21.10;99.90
8838;DHT22;4455;50.880;4.698;2022-08-05T08:32:08;21.10;99.90
8838;DHT22;4455;50.880;4.698;2022-08-05T08:34:35;21.10;99.90
8838;DHT22;4455;50.880;4.698;2022-08-05T08:37:01;21.20;99.90
8838;DHT22;4455;50.880;4.698;2022-08-05T08:39:27;21.20;99.90
8838;DHT22;4455;50.880;4.698;2022-08-05T08:41:55;21.20;99.90
8838;DHT22;4455;50.880;4.698;2022-08-05T08:44:23;21.30;99.90
8838;DHT22;4455;50.880;4.698;2022-08-05T08:46:52;21.40;99.90
8838;DHT22;4455;50.880;4.698;2022-08-05T08:49:23;21.40;99.90
8838;DHT22;4455;50.880;4.698;2022-08-05T08:52:11;21.40;99.90
8838;DHT22;4455;50.880;4.698;2022-08-05T08:54:39;21.50;99.90
8838;DHT22;4455;50.880;4.698;2022-08-05T08:57:06;21.60;99.90
8838;DHT22;4455;50.880;4.698;2022-08-05T08:59:35;21.60;99.90
8838;DHT22;4455;50.880;4.698;2022-08-05T09:02:12;21.70;99.90
8838;DHT22;4455;50.880;4.698;2022-08-05T09:04:39;21.70;99.90
8838;DHT22;4455;50.880;4.698;2022-08-05T09:07:08;21.80;99.90
8838;DHT22;4455;50.880;4.698;2022-08-05T09:09:35;21.80;99.90
8838;DHT22;4455;50.880;4.698;2022-08-05T09:12:04;21.90;99.90
8838;DHT22;4455;50.880;4.698;2022-08-05T09:14:36;22.10;99.90
8838;DHT22;4455;50.880;4.698;2022-08-05T09:17:08;22.40;99.90
8838;DHT22;4455;50.880;4.698;2022-08-05T09:19:41;22.60;99.90
8838;DHT22;4455;50.880;4.698;2022-08-05T09:22:08;22.80;99.90
8838;DHT22;4455;50.880;4.698;2022-08-05T09:24:36;23.00;99.90
8838;DHT22;4455;50.880;4.698;2022-08-05T09:27:07;23.10;99.90
8838;DHT22;4455;50.880;4.698;2022-08-05T09:29:40;23.20;99.90
8838;DHT22;4455;50.880;4.698;2022-08-05T09:32:09;23.10;99.90
8838;DHT22;4455;50.880;4.698;2022-08-05T09:35:09;23.10;99.90
8838;DHT22;4455;50.880;4.698;2022-08-05T09:37:39;23.10;99.90
8838;DHT22;4455;50.880;4.698;2022-08-05T09:40:36;23.10;99.90
8838;DHT22;4455;50.880;4.698;2022-08-05T09:43:04;23.40;99.90
8838;DHT22;4455;50.880;4.698;2022-08-05T09:45:37;23.60;99.90
8838;DHT22;4455;50.880;4.698;2022-08-05T09:48:38;23.60;99.90
8838;DHT22;4455;50.880;4.698;2022-08-05T09:51:07;23.40;99.90
8838;DHT22;4455;50.880;4.698;2022-08-05T09:53:54;23.20;99.90
8838;DHT22;4455;50.880;4.698;2022-08-05T09:56:27;23.00;99.90
8838;DHT22;4455;50.880;4.698;2022-08-05T09:59:22;22.90;99.90
8838;DHT22;4455;50.880;4.698;2022-08-05T10:01:48;22.90;99.90
8838;DHT22;4455;50.880;4.698;2022-08-05T10:04:21;22.70;99.90
8838;DHT22;4455;50.880;4.698;2022-08-05T10:06:58;22.80;99.90
8838;DHT22;4455;50.880;4.698;2022-08-05T10:09:25;22.90;99.90
8838;DHT22;4455;50.880;4.698;2022-08-05T10:11:53;23.00;99.90
8838;DHT22;4455;50.880;4.698;2022-08-05T10:16:54;23.20;99.90
8838;DHT22;4455;50.880;4.698;2022-08-05T10:19:26;23.30;99.90
8838;DHT22;4455;50.880;4.698;2022-08-05T10:21:52;23.50;99.90
8838;DHT22;4455;50.880;4.698;2022-08-05T10:24:20;23.60;99.90
8838;DHT22;4455;50.880;4.698;2022-08-05T10:26:48;23.70;99.90
8838;DHT22;4455;50.880;4.698;2022-08-05T10:29:14;23.70;99.90
8838;DHT22;4455;50.880;4.698;2022-08-05T10:31:40;23.40;99.90
8838;DHT22;4455;50.880;4.698;2022-08-05T10:34:08;23.30;99.90
8838;DHT22;4455;50.880;4.698;2022-08-05T10:36:38;23.10;99.90
8838;DHT22;4455;50.880;4.698;2022-08-05T10:39:09;23.00;99.90
8838;DHT22;4455;50.880;4.698;2022-08-05T10:41:45;22.80;99.90
8838;DHT22;4455;50.880;4.698;2022-08-05T10:44:15;23.00;99.90
8838;DHT22;4455;50.880;4.698;2022-08-05T10:46:47;23.10;99.90
8838;DHT22;4455;50.880;4.698;2022-08-05T10:49:14;23.30;99.90
8838;DHT22;4455;50.880;4.698;2022-08-05T10:51:43;23.40;99.90
8838;DHT22;4455;50.880;4.698;2022-08-05T10:54:09;23.50;99.90
8838;DHT22;4455;50.880;4.698;2022-08-05T10:56:50;23.60;99.90
8838;DHT22;4455;50.880;4.698;2022-08-05T10:59:17;23.70;99.50
8838;DHT22;4455;50.880;4.698;2022-08-05T11:01:44;23.80;99.90
8838;DHT22;4455;50.880;4.698;2022-08-05T11:04:14;23.80;99.90
8838;DHT22;4455;50.880;4.698;2022-08-05T11:11:52;23.90;99.90
8838;DHT22;4455;50.880;4.698;2022-08-05T11:14:27;23.70;99.90
8838;DHT22;4455;50.880;4.698;2022-08-05T11:17:26;23.70;99.90
8838;DHT22;4455;50.880;4.698;2022-08-05T11:19:56;23.70;99.90
8838;DHT22;4455;50.880;4.698;2022-08-05T11:22:43;24.00;99.90
8838;DHT22;4455;50.880;4.698;2022-08-05T11:35:57;24.20;98.30
8838;DHT22;4455;50.880;4.698;2022-08-05T11:41:27;23.90;96.20
8838;DHT22;4455;50.880;4.698;2022-08-05T11:44:03;23.80;96.60
8838;DHT22;4455;50.880;4.698;2022-08-05T11:46:44;24.00;96.50
8838;DHT22;4455;50.880;4.698;2022-08-05T11:49:13;24.20;96.20
8838;DHT22;4455;50.880;4.698;2022-08-05T11:51:44;24.40;96.10
8838;DHT22;4455;50.880;4.698;2022-08-05T11:54:11;24.40;95.30
8838;DHT22;4455;50.880;4.698;2022-08-05T11:56:45;24.30;96.10
8838;DHT22;4455;50.880;4.698;2022-08-05T11:59:13;24.30;95.00
8838;DHT22;4455;50.880;4.698;2022-08-05T12:01:55;24.20;95.60
8838;DHT22;4455;50.880;4.698;2022-08-05T12:04:21;24.20;95.60
8838;DHT22;4455;50.880;4.698;2022-08-05T12:06:48;24.00;95.50
8838;DHT22;4455;50.880;4.698;2022-08-05T12:09:17;24.00;96.00
8838;DHT22;4455;50.880;4.698;2022-08-05T12:11:46;24.00;96.40
8838;DHT22;4455;50.880;4.698;2022-08-05T12:14:12;23.90;96.50
8838;DHT22;4455;50.880;4.698;2022-08-05T12:16:43;24.00;96.40
8838;DHT22;4455;50.880;4.698;2022-08-05T12:19:12;23.90;95.90
8838;DHT22;4455;50.880;4.698;2022-08-05T12:21:47;23.70;96.70
8838;DHT22;4455;50.880;4.698;2022-08-05T12:24:18;23.60;96.90
8838;DHT22;4455;50.880;4.698;2022-08-05T12:26:46;23.50;96.90
8838;DHT22;4455;50.880;4.698;2022-08-05T12:29:15;23.60;97.00
8838;DHT22;4455;50.880;4.698;2022-08-05T12:31:46;23.70;97.50
8838;DHT22;4455;50.880;4.698;2022-08-05T12:34:14;23.80;96.60
8838;DHT22;4455;50.880;4.698;2022-08-05T12:36:40;23.90;96.60
8838;DHT22;4455;50.880;4.698;2022-08-05T12:39:07;23.80;96.20
8838;DHT22;4455;50.880;4.698;2022-08-05T12:41:36;23.80;95.70
8838;DHT22;4455;50.880;4.698;2022-08-05T12:44:05;23.80;96.20
8838;DHT22;4455;50.880;4.698;2022-08-05T12:46:32;23.80;95.80
8838;DHT22;4455;50.880;4.698;2022-08-05T12:49:06;23.90;96.10
8838;DHT22;4455;50.880;4.698;2022-08-05T12:54:24;23.90;95.70
8838;DHT22;4455;50.880;4.698;2022-08-05T12:56:56;24.00;96.10
8838;DHT22;4455;50.880;4.698;2022-08-05T12:59:26;24.00;96.50
8838;DHT22;4455;50.880;4.698;2022-08-05T13:01:55;23.90;95.70
8838;DHT22;4455;50.880;4.698;2022-08-05T13:04:29;24.10;96.20
8838;DHT22;4455;50.880;4.698;2022-08-05T13:06:58;24.10;95.60
8838;DHT22;4455;50.880;4.698;2022-08-05T13:09:27;24.20;95.30
8838;DHT22;4455;50.880;4.698;2022-08-05T13:12:08;24.10;94.60
8838;DHT22;4455;50.880;4.698;2022-08-05T13:14:37;23.90;94.70
8838;DHT22;4455;50.880;4.698;2022-08-05T13:20:13;23.80;93.80
8838;DHT22;4455;50.880;4.698;2022-08-05T13:22:52;23.90;93.70
8838;DHT22;4455;50.880;4.698;2022-08-05T13:25:19;23.90;93.00
8838;DHT22;4455;50.880;4.698;2022-08-05T13:27:49;23.90;93.20
8838;DHT22;4455;50.880;4.698;2022-08-05T13:30:19;24.10;92.60
8838;DHT22;4455;50.880;4.698;2022-08-05T13:32:46;24.30;92.10
8838;DHT22;4455;50.880;4.698;2022-08-05T13:35:14;24.30;91.20
8838;DHT22;4455;50.880;4.698;2022-08-05T13:37:40;24.30;90.30
8838;DHT22;4455;50.880;4.698;2022-08-05T13:40:07;24.40;91.40
8838;DHT22;4455;50.880;4.698;2022-08-05T13:42:33;24.20;90.70
8838;DHT22;4455;50.880;4.698;2022-08-05T13:44:59;24.10;90.60
8838;DHT22;4455;50.880;4.698;2022-08-05T13:47:25;23.90;90.30
8838;DHT22;4455;50.880;4.698;2022-08-05T13:49:51;23.80;89.80
8838;DHT22;4455;50.880;4.698;2022-08-05T13:52:21;23.70;91.10
8838;DHT22;4455;50.880;4.698;2022-08-05T13:54:48;23.40;91.90
8838;DHT22;4455;50.880;4.698;2022-08-05T13:57:15;23.40;91.60
8838;DHT22;4455;50.880;4.698;2022-08-05T13:59:42;23.30;91.00
8838;DHT22;4455;50.880;4.698;2022-08-05T14:02:09;23.30;91.60
8838;DHT22;4455;50.880;4.698;2022-08-05T14:04:44;23.10;91.40
8838;DHT22;4455;50.880;4.698;2022-08-05T14:07:34;23.30;91.50
8838;DHT22;4455;50.880;4.698;2022-08-05T14:10:01;23.50;91.40
8838;DHT22;4455;50.880;4.698;2022-08-05T14:12:26;23.80;90.90
8838;DHT22;4455;50.880;4.698;2022-08-05T14:14:52;24.10;91.20
8838;DHT22;4455;50.880;4.698;2022-08-05T14:17:18;24.20;90.70
8838;DHT22;4455;50.880;4.698;2022-08-05T14:19:44;24.20;90.20
8838;DHT22;4455;50.880;4.698;2022-08-05T14:22:11;24.20;90.70
8838;DHT22;4455;50.880;4.698;2022-08-05T14:24:37;24.30;90.30
8838;DHT22;4455;50.880;4.698;2022-08-05T14:27:05;24.30;90.20
8838;DHT22;4455;50.880;4.698;2022-08-05T14:29:31;24.30;90.60
8838;DHT22;4455;50.880;4.698;2022-08-05T14:31:57;24.30;90.10
8838;DHT22;4455;50.880;4.698;2022-08-05T14:34:22;24.20;90.20
8838;DHT22;4455;50.880;4.698;2022-08-05T14:36:49;24.10;90.90
8838;DHT22;4455;50.880;4.698;2022-08-05T14:39:15;24.00;90.80
8838;DHT22;4455;50.880;4.698;2022-08-05T14:41:41;24.10;90.90
8838;DHT22;4455;50.880;4.698;2022-08-05T14:44:07;24.10;90.30
8838;DHT22;4455;50.880;4.698;2022-08-05T14:46:33;24.10;90.70
8838;DHT22;4455;50.880;4.698;2022-08-05T14:49:00;24.30;90.60
8838;DHT22;4455;50.880;4.698;2022-08-05T14:51:27;24.30;90.00
8838;DHT22;4455;50.880;4.698;2022-08-05T14:53:53;24.30;90.40
8838;DHT22;4455;50.880;4.698;2022-08-05T14:56:18;24.30;90.00
8838;DHT22;4455;50.880;4.698;2022-08-05T14:58:44;24.30;90.20
8838;DHT22;4455;50.880;4.698;2022-08-05T15:01:10;24.30;89.30
8838;DHT22;4455;50.880;4.698;2022-08-05T15:03:36;24.30;88.10
8838;DHT22;4455;50.880;4.698;2022-08-05T15:06:03;24.30;89.50
8838;DHT22;4455;50.880;4.698;2022-08-05T15:08:29;24.20;88.50
8838;DHT22;4455;50.880;4.698;2022-08-05T15:10:55;24.10;89.10
8838;DHT22;4455;50.880;4.698;2022-08-05T15:13:22;24.10;89.00
8838;DHT22;4455;50.880;4.698;2022-08-05T15:15:48;24.10;89.40
8838;DHT22;4455;50.880;4.698;2022-08-05T15:18:14;24.00;88.50
8838;DHT22;4455;50.880;4.698;2022-08-05T15:20:40;24.10;88.20
8838;DHT22;4455;50.880;4.698;2022-08-05T15:23:08;24.10;87.50
8838;DHT22;4455;50.880;4.698;2022-08-05T15:25:35;24.10;88.10
8838;DHT22;4455;50.880;4.698;2022-08-05T15:28:02;24.20;87.60
8838;DHT22;4455;50.880;4.698;2022-08-05T15:30:28;24.20;86.80
8838;DHT22;4455;50.880;4.698;2022-08-05T15:32:57;24.20;86.20
8838;DHT22;4455;50.880;4.698;2022-08-05T15:35:24;24.20;85.20
8838;DHT22;4455;50.880;4.698;2022-08-05T15:37:50;24.10;84.50
8838;DHT22;4455;50.880;4.698;2022-08-05T15:40:16;24.00;84.00
8838;DHT22;4455;50.880;4.698;2022-08-05T15:42:42;23.90;84.90
8838;DHT22;4455;50.880;4.698;2022-08-05T15:45:09;24.00;83.60
8838;DHT22;4455;50.880;4.698;2022-08-05T15:47:40;23.80;83.70
8838;DHT22;4455;50.880;4.698;2022-08-05T15:50:07;23.80;84.60
8838;DHT22;4455;50.880;4.698;2022-08-05T15:52:34;23.90;85.40
8838;DHT22;4455;50.880;4.698;2022-08-05T15:55:03;23.90;82.60
8838;DHT22;4455;50.880;4.698;2022-08-05T15:57:29;23.90;85.30
8838;DHT22;4455;50.880;4.698;2022-08-05T15:59:55;23.90;84.10
8838;DHT22;4455;50.880;4.698;2022-08-05T16:02:21;23.80;85.60
8838;DHT22;4455;50.880;4.698;2022-08-05T16:04:47;23.70;86.20
8838;DHT22;4455;50.880;4.698;2022-08-05T16:07:13;23.50;87.40
8838;DHT22;4455;50.880;4.698;2022-08-05T16:09:40;23.30;88.40
8838;DHT22;4455;50.880;4.698;2022-08-05T16:12:07;23.10;90.10
8838;DHT22;4455;50.880;4.698;2022-08-05T16:14:32;23.00;88.10
8838;DHT22;4455;50.880;4.698;2022-08-05T16:16:58;23.00;90.00
8838;DHT22;4455;50.880;4.698;2022-08-05T16:19:25;23.10;90.00
8838;DHT22;4455;50.880;4.698;2022-08-05T16:21:52;23.30;89.00
8838;DHT22;4455;50.880;4.698;2022-08-05T16:24:19;23.40;89.30
8838;DHT22;4455;50.880;4.698;2022-08-05T16:26:56;23.50;88.90
8838;DHT22;4455;50.880;4.698;2022-08-05T16:29:24;23.50;90.00
8838;DHT22;4455;50.880;4.698;2022-08-05T16:31:51;23.40;89.80
8838;DHT22;4455;50.880;4.698;2022-08-05T16:34:19;23.40;89.30
8838;DHT22;4455;50.880;4.698;2022-08-05T16:36:46;23.50;88.30
8838;DHT22;4455;50.880;4.698;2022-08-05T16:39:13;23.50;90.10
8838;DHT22;4455;50.880;4.698;2022-08-05T16:41:39;23.40;88.90
8838;DHT22;4455;50.880;4.698;2022-08-05T16:44:09;23.30;89.00